createdAt,value
2019-01-20T00:01:56.676Z,-4.60
2019-01-20T00:04:28.931Z,-4.55
2019-01-20T00:07:00.086Z,-4.51
2019-01-20T00:09:34.283Z,-4.63
2019-01-20T00:12:06.307Z,-4.75
2019-01-20T00:14:37.535Z,-4.71
2019-01-20T00:17:08.697Z,-4.85
2019-01-20T00:19:39.850Z,-4.90
2019-01-20T00:22:12.406Z,-4.80
2019-01-20T00:24:43.576Z,-4.85
2019-01-20T00:27:14.649Z,-4.98
2019-01-20T00:29:45.801Z,-4.99
2019-01-20T00:32:16.895Z,-4.87
2019-01-20T00:34:48.878Z,-4.92
2019-01-20T00:37:20.058Z,-4.92
2019-01-20T00:39:51.296Z,-4.93
2019-01-20T00:42:22.383Z,-5.00
2019-01-20T00:44:53.521Z,-4.97
2019-01-20T00:47:24.841Z,-4.98
2019-01-20T00:49:56.190Z,-5.00
2019-01-20T00:52:27.527Z,-5.06
2019-01-20T00:54:58.681Z,-5.08
2019-01-20T00:57:30.165Z,-4.98
2019-01-20T01:00:01.476Z,-4.81
2019-01-20T01:02:32.646Z,-4.91
2019-01-20T01:05:03.990Z,-4.75
2019-01-20T01:07:35.203Z,-4.77
2019-01-20T01:10:07.172Z,-4.86
2019-01-20T01:12:38.616Z,-4.85
2019-01-20T01:15:10.584Z,-4.91
2019-01-20T01:17:41.691Z,-4.90
2019-01-20T01:20:14.108Z,-5.08
2019-01-20T01:22:45.345Z,-4.96
2019-01-20T01:25:18.185Z,-5.07
2019-01-20T01:27:49.417Z,-5.04
2019-01-20T01:30:22.788Z,-5.13
2019-01-20T01:32:53.974Z,-5.13
2019-01-20T01:35:25.114Z,-4.93
2019-01-20T01:37:56.250Z,-4.80
2019-01-20T01:40:27.380Z,-4.84
2019-01-20T01:42:58.551Z,-5.09
2019-01-20T01:45:29.626Z,-5.03
2019-01-20T01:48:00.852Z,-5.09
2019-01-20T01:50:32.192Z,-5.12
2019-01-20T01:53:03.304Z,-5.16
2019-01-20T01:55:34.353Z,-5.26
2019-01-20T01:58:05.495Z,-5.32
2019-01-20T02:00:36.854Z,-5.37
2019-01-20T02:03:08.016Z,-5.47
2019-01-20T02:05:38.990Z,-5.50
2019-01-20T02:08:10.424Z,-5.58
2019-01-20T02:10:42.442Z,-5.49
2019-01-20T02:13:13.612Z,-5.36
2019-01-20T02:15:44.751Z,-5.53
2019-01-20T02:18:15.836Z,-5.34
2019-01-20T02:20:48.141Z,-5.47
2019-01-20T02:23:19.240Z,-5.54
2019-01-20T02:25:50.382Z,-5.55
2019-01-20T02:28:21.556Z,-5.56
2019-01-20T02:30:52.718Z,-5.54
2019-01-20T02:33:23.770Z,-5.54
2019-01-20T02:35:54.748Z,-5.59
2019-01-20T02:38:25.832Z,-5.64
2019-01-20T02:40:57.943Z,-5.63
2019-01-20T02:43:29.098Z,-5.52
2019-01-20T02:46:00.332Z,-5.67
2019-01-20T02:48:31.570Z,-5.57
2019-01-20T02:51:02.676Z,-5.30
2019-01-20T02:53:33.788Z,-5.31
2019-01-20T02:56:05.541Z,-5.44
2019-01-20T02:58:36.898Z,-5.30
2019-01-20T03:01:08.158Z,-5.51
2019-01-20T03:03:39.161Z,-5.49
2019-01-20T03:06:10.350Z,-5.39
2019-01-20T03:08:41.422Z,-5.51
2019-01-20T03:11:12.608Z,-5.57
2019-01-20T03:13:43.762Z,-5.54
2019-01-20T03:16:14.814Z,-5.53
2019-01-20T03:18:46.138Z,-5.59
2019-01-20T03:21:17.325Z,-5.68
2019-01-20T03:23:48.440Z,-5.63
2019-01-20T03:26:19.577Z,-5.61
2019-01-20T03:28:50.651Z,-5.63
2019-01-20T03:31:21.894Z,-5.82
2019-01-20T03:33:52.991Z,-5.81
2019-01-20T03:36:24.117Z,-5.73
2019-01-20T03:38:55.184Z,-5.66
2019-01-20T03:41:26.274Z,-5.69
2019-01-20T03:43:57.612Z,-5.72
2019-01-20T03:46:28.597Z,-5.58
2019-01-20T03:48:59.783Z,-5.74
2019-01-20T03:51:30.989Z,-5.72
2019-01-20T03:54:02.158Z,-5.87
2019-01-20T03:56:33.340Z,-5.61
2019-01-20T03:59:04.726Z,-5.56
2019-01-20T04:01:36.111Z,-5.45
2019-01-20T04:04:07.273Z,-5.79
2019-01-20T04:06:38.414Z,-5.75
2019-01-20T04:09:09.600Z,-5.94
2019-01-20T04:11:40.784Z,-5.83
2019-01-20T04:14:11.824Z,-5.82
2019-01-20T04:16:43.021Z,-5.63
2019-01-20T04:19:14.131Z,-5.64
2019-01-20T04:21:45.291Z,-5.63
2019-01-20T04:24:16.290Z,-5.78
2019-01-20T04:26:47.386Z,-5.62
2019-01-20T04:29:18.658Z,-5.58
2019-01-20T04:31:49.758Z,-5.65
2019-01-20T04:34:20.910Z,-5.89
2019-01-20T04:36:52.046Z,-5.82
2019-01-20T04:39:23.125Z,-6.03
2019-01-20T04:41:54.249Z,-5.90
2019-01-20T04:46:54.729Z,-5.85
2019-01-20T04:49:25.815Z,-5.82
2019-01-20T04:51:56.978Z,-5.85
2019-01-20T04:54:28.230Z,-5.85
2019-01-20T04:56:59.304Z,-5.72
2019-01-20T04:59:30.376Z,-5.91
2019-01-20T05:02:01.458Z,-5.77
2019-01-20T05:04:32.472Z,-5.52
2019-01-20T05:07:03.586Z,-5.66
2019-01-20T05:09:34.669Z,-5.78
2019-01-20T05:12:06.026Z,-5.73
2019-01-20T05:14:37.198Z,-5.62
2019-01-20T05:17:08.335Z,-5.71
2019-01-20T05:19:39.478Z,-5.81
2019-01-20T05:22:10.574Z,-5.87
2019-01-20T05:24:41.568Z,-5.98
2019-01-20T05:27:12.769Z,-5.71
2019-01-20T05:29:43.975Z,-5.72
2019-01-20T05:32:15.079Z,-5.74
2019-01-20T05:34:46.147Z,-5.72
2019-01-20T05:37:17.463Z,-5.74
2019-01-20T05:39:48.590Z,-5.81
2019-01-20T05:42:19.702Z,-6.07
2019-01-20T05:44:51.168Z,-6.07
2019-01-20T05:47:22.547Z,-5.82
2019-01-20T05:49:53.773Z,-5.70
2019-01-20T05:52:24.945Z,-5.74
2019-01-20T05:54:56.105Z,-5.91
2019-01-20T05:57:28.481Z,-5.78
2019-01-20T05:59:59.701Z,-5.85
2019-01-20T06:02:30.836Z,-5.82
2019-01-20T06:05:01.936Z,-5.92
2019-01-20T06:07:33.111Z,-6.05
2019-01-20T06:10:05.475Z,-5.94
2019-01-20T06:12:36.729Z,-5.77
2019-01-20T06:15:12.105Z,-5.60
2019-01-20T06:17:43.602Z,-5.70
2019-01-20T06:20:15.728Z,-5.82
2019-01-20T06:22:46.945Z,-5.84
2019-01-20T06:25:18.247Z,-5.94
2019-01-20T06:27:49.798Z,-5.93
2019-01-20T06:30:29.442Z,-6.08
2019-01-20T06:33:00.555Z,-5.78
2019-01-20T06:35:31.897Z,-5.86
2019-01-20T06:38:03.025Z,-5.90
2019-01-20T06:40:34.104Z,-5.94
2019-01-20T06:43:05.334Z,-5.91
2019-01-20T06:45:36.413Z,-5.96
2019-01-20T06:48:07.463Z,-6.06
2019-01-20T06:50:39.675Z,-6.15
2019-01-20T06:53:10.830Z,-6.05
2019-01-20T06:55:41.896Z,-6.11
2019-01-20T06:58:12.954Z,-6.13
2019-01-20T07:00:44.047Z,-5.98
2019-01-20T07:03:15.036Z,-5.89
2019-01-20T07:05:46.189Z,-5.90
2019-01-20T07:08:17.238Z,-6.02
2019-01-20T07:10:48.379Z,-6.07
2019-01-20T07:13:19.534Z,-6.07
2019-01-20T07:15:50.717Z,-5.89
2019-01-20T07:18:21.742Z,-5.95
2019-01-20T07:20:52.954Z,-5.79
2019-01-20T07:23:24.108Z,-5.92
2019-01-20T07:25:55.289Z,-5.83
2019-01-20T07:28:26.380Z,-5.67
2019-01-20T07:30:57.583Z,-5.69
2019-01-20T07:33:28.813Z,-5.50
2019-01-20T07:35:59.805Z,-5.33
2019-01-20T07:38:31.074Z,-5.22
2019-01-20T07:41:02.180Z,-5.12
2019-01-20T07:43:33.256Z,-5.08
2019-01-20T07:46:04.497Z,-5.09
2019-01-20T07:48:35.771Z,-4.74
2019-01-20T07:51:06.917Z,-4.68
2019-01-20T07:53:37.992Z,-4.41
2019-01-20T07:56:09.100Z,-4.15
2019-01-20T07:58:40.326Z,-4.20
2019-01-20T08:01:11.394Z,-4.09
2019-01-20T08:03:42.372Z,-4.05
2019-01-20T08:06:13.608Z,-3.86
2019-01-20T08:08:44.829Z,-3.73
2019-01-20T08:11:15.976Z,-3.49
2019-01-20T08:13:46.983Z,-3.33
2019-01-20T08:16:19.289Z,-3.22
2019-01-20T08:18:50.397Z,-3.07
2019-01-20T08:21:21.710Z,-2.98
2019-01-20T08:23:52.960Z,-2.60
2019-01-20T08:26:24.161Z,-2.48
2019-01-20T08:28:55.333Z,-2.11
2019-01-20T08:31:26.446Z,-2.04
2019-01-20T08:33:57.621Z,-1.96
2019-01-20T08:36:28.730Z,-1.91
2019-01-20T08:38:59.865Z,-1.77
2019-01-20T08:41:31.019Z,-1.74
2019-01-20T08:44:02.284Z,-1.67
2019-01-20T08:46:45.192Z,-1.61
2019-01-20T08:49:16.274Z,-1.55
2019-01-20T08:51:47.418Z,-1.46
2019-01-20T08:54:18.566Z,-1.51
2019-01-20T08:56:49.633Z,-1.39
2019-01-20T08:59:20.849Z,-1.46
2019-01-20T09:01:51.954Z,-1.36
2019-01-20T09:04:23.045Z,-1.29
2019-01-20T09:06:54.199Z,-1.05
2019-01-20T09:09:25.227Z,-1.05
2019-01-20T09:11:56.362Z,-0.98
2019-01-20T09:14:27.590Z,-1.00
2019-01-20T09:16:58.698Z,-1.10
2019-01-20T09:19:29.867Z,-0.98
2019-01-20T09:22:01.081Z,-0.91
2019-01-20T09:24:32.280Z,-0.80
2019-01-20T09:27:03.480Z,-0.71
2019-01-20T09:29:34.644Z,-0.86
2019-01-20T09:32:05.832Z,-0.69
2019-01-20T09:34:37.030Z,-0.54
2019-01-20T09:37:08.201Z,-0.53
2019-01-20T09:39:39.385Z,-0.53
2019-01-20T09:42:10.486Z,-0.24
2019-01-20T09:44:41.558Z,-0.19
2019-01-20T09:47:12.634Z,-0.23
2019-01-20T09:49:43.712Z,-0.05
2019-01-20T09:52:14.796Z,0.00
2019-01-20T09:54:45.859Z,0.07
2019-01-20T09:57:16.945Z,0.11
2019-01-20T09:59:48.091Z,0.16
2019-01-20T10:02:19.225Z,0.06
2019-01-20T10:04:50.369Z,0.06
2019-01-20T10:07:21.516Z,0.20
2019-01-20T10:09:52.488Z,0.34
2019-01-20T10:12:23.636Z,0.38
2019-01-20T10:14:54.903Z,0.50
2019-01-20T10:17:25.982Z,0.74
2019-01-20T10:19:57.031Z,0.87
2019-01-20T10:22:28.370Z,1.27
2019-01-20T10:24:59.458Z,1.49
2019-01-20T10:27:30.614Z,1.56
2019-01-20T10:30:01.837Z,1.53
2019-01-20T10:32:33.103Z,1.55
2019-01-20T10:35:04.465Z,1.15
2019-01-20T10:37:36.600Z,1.32
2019-01-20T10:40:08.427Z,1.25
2019-01-20T10:42:39.719Z,1.38
2019-01-20T10:45:11.319Z,1.45
2019-01-20T10:47:42.498Z,1.30
2019-01-20T10:50:13.958Z,1.40
2019-01-20T10:52:45.207Z,1.39
2019-01-20T10:55:16.330Z,1.48
2019-01-20T10:57:47.712Z,1.63
2019-01-20T11:00:22.204Z,1.36
2019-01-20T11:02:53.294Z,1.46
2019-01-20T11:05:30.126Z,1.80
2019-01-20T11:07:57.296Z,1.65
2019-01-20T11:10:28.465Z,2.42
2019-01-20T11:12:59.722Z,2.59
2019-01-20T11:15:30.975Z,2.56
2019-01-20T11:18:02.367Z,2.45
2019-01-20T11:20:33.711Z,2.33
2019-01-20T11:23:05.977Z,1.53
2019-01-20T11:25:39.915Z,1.64
2019-01-20T11:28:12.075Z,1.46
2019-01-20T11:30:43.183Z,1.19
2019-01-20T11:33:14.405Z,0.92
2019-01-20T11:35:45.640Z,0.83
2019-01-20T11:38:16.672Z,0.80
2019-01-20T11:40:47.808Z,1.01
2019-01-20T11:43:18.886Z,1.29
2019-01-20T11:45:50.123Z,1.31
2019-01-20T11:48:21.295Z,1.44
2019-01-20T11:50:52.530Z,1.40
2019-01-20T11:53:26.185Z,1.31
2019-01-20T11:55:57.532Z,1.01
2019-01-20T11:58:28.627Z,1.05
2019-01-20T12:00:59.815Z,0.98
2019-01-20T12:03:30.899Z,1.08
2019-01-20T12:06:02.178Z,0.74
2019-01-20T12:08:33.365Z,0.68
2019-01-20T12:11:04.478Z,0.72
2019-01-20T12:13:35.664Z,1.05
2019-01-20T12:16:06.840Z,1.09
2019-01-20T12:18:38.022Z,1.08
2019-01-20T12:21:09.405Z,0.96
2019-01-20T12:23:41.443Z,1.04
2019-01-20T12:26:12.555Z,1.31
2019-01-20T12:28:43.777Z,1.60
2019-01-20T12:31:14.938Z,2.52
2019-01-20T12:33:46.121Z,2.99
2019-01-20T12:36:17.078Z,2.75
2019-01-20T12:38:48.151Z,2.94
2019-01-20T12:41:19.419Z,2.96
2019-01-20T12:43:50.598Z,2.29
2019-01-20T12:46:21.652Z,2.20
2019-01-20T12:48:55.864Z,2.48
2019-01-20T12:51:28.655Z,2.67
2019-01-20T12:54:01.229Z,2.76
2019-01-20T12:56:32.570Z,3.17
2019-01-20T12:59:04.056Z,3.17
2019-01-20T13:01:35.268Z,3.12
2019-01-20T13:04:07.422Z,2.83
2019-01-20T13:06:38.522Z,2.52
2019-01-20T13:09:10.177Z,2.16
2019-01-20T13:11:41.227Z,2.02
2019-01-20T13:14:12.391Z,1.91
2019-01-20T13:16:45.211Z,1.85
2019-01-20T13:19:16.356Z,1.72
2019-01-20T13:21:47.446Z,1.64
2019-01-20T13:24:20.063Z,1.64
2019-01-20T13:26:51.196Z,1.62
2019-01-20T13:29:22.300Z,1.76
2019-01-20T13:31:53.855Z,1.71
2019-01-20T13:34:24.870Z,1.79
2019-01-20T13:36:55.938Z,1.65
2019-01-20T13:39:26.945Z,1.63
2019-01-20T13:41:58.044Z,1.28
2019-01-20T13:44:29.177Z,1.27
2019-01-20T13:47:00.273Z,1.37
2019-01-20T13:49:31.319Z,1.85
2019-01-20T13:52:02.482Z,2.13
2019-01-20T13:54:33.601Z,2.36
2019-01-20T13:57:06.382Z,2.55
2019-01-20T13:59:37.559Z,2.78
2019-01-20T14:02:08.697Z,3.02
2019-01-20T14:04:39.914Z,2.85
2019-01-20T14:07:11.033Z,3.00
2019-01-20T14:09:42.049Z,3.05
2019-01-20T14:12:13.217Z,3.03
2019-01-20T14:14:44.300Z,2.73
2019-01-20T14:17:15.338Z,2.73
2019-01-20T14:19:46.454Z,2.67
2019-01-20T14:22:18.103Z,2.55
2019-01-20T14:24:49.192Z,2.54
2019-01-20T14:27:20.365Z,2.67
2019-01-20T14:29:51.475Z,1.72
2019-01-20T14:32:22.621Z,1.94
2019-01-20T14:34:53.642Z,1.83
2019-01-20T14:37:24.713Z,1.66
2019-01-20T14:39:55.866Z,1.60
2019-01-20T14:42:26.900Z,1.44
2019-01-20T14:45:01.124Z,1.27
2019-01-20T14:47:31.412Z,1.38
2019-01-20T14:50:02.589Z,1.32
2019-01-20T14:52:33.919Z,1.24
2019-01-20T14:55:06.209Z,1.23
2019-01-20T14:57:37.388Z,1.17
2019-01-20T15:00:17.959Z,1.06
2019-01-20T15:02:49.313Z,1.14
2019-01-20T15:05:20.525Z,1.15
2019-01-20T15:07:51.690Z,0.98
2019-01-20T15:10:22.856Z,0.92
2019-01-20T15:12:55.000Z,0.81
2019-01-20T15:15:29.979Z,0.65
2019-01-20T15:18:01.134Z,0.50
2019-01-20T15:20:32.231Z,0.39
2019-01-20T15:23:03.299Z,0.38
2019-01-20T15:25:34.479Z,0.30
2019-01-20T15:28:06.745Z,0.19
2019-01-20T15:30:37.967Z,0.11
2019-01-20T15:33:09.117Z,0.33
2019-01-20T15:35:40.176Z,0.13
2019-01-20T15:38:11.321Z,0.20
2019-01-20T15:40:42.492Z,0.20
2019-01-20T15:43:13.473Z,0.22
2019-01-20T15:45:44.634Z,0.00
2019-01-20T15:48:16.005Z,-0.03
2019-01-20T15:50:47.189Z,-0.09
2019-01-20T15:53:18.277Z,-0.14
2019-01-20T15:55:49.567Z,-0.43
2019-01-20T15:58:20.655Z,-0.30
2019-01-20T16:00:51.698Z,-0.24
2019-01-20T16:03:22.940Z,-0.30
2019-01-20T16:05:54.001Z,-0.30
2019-01-20T16:08:25.169Z,-0.34
2019-01-20T16:10:56.265Z,-0.31
2019-01-20T16:13:27.354Z,-0.41
2019-01-20T16:15:58.398Z,-0.37
2019-01-20T16:18:29.504Z,-0.42
2019-01-20T16:21:00.601Z,-0.45
2019-01-20T16:23:32.757Z,-0.47
2019-01-20T16:26:03.877Z,-0.62
2019-01-20T16:28:35.049Z,-0.70
2019-01-20T16:31:06.211Z,-1.16
2019-01-20T16:33:37.364Z,-0.95
2019-01-20T16:36:08.462Z,-1.16
2019-01-20T16:38:39.602Z,-1.15
2019-01-20T16:41:11.161Z,-0.91
2019-01-20T16:43:42.727Z,-0.97
2019-01-20T16:46:13.881Z,-1.08
2019-01-20T16:48:45.060Z,-1.10
2019-01-20T16:51:16.135Z,-1.03
2019-01-20T16:53:47.215Z,-1.02
2019-01-20T16:56:18.481Z,-1.22
2019-01-20T16:58:51.402Z,-1.31
2019-01-20T17:01:22.835Z,-1.27
2019-01-20T17:03:53.932Z,-1.34
2019-01-20T17:06:25.135Z,-1.14
2019-01-20T17:08:56.395Z,-1.26
2019-01-20T17:11:27.584Z,-1.27
2019-01-20T17:13:58.600Z,-1.19
2019-01-20T17:16:30.162Z,-1.28
2019-01-20T17:19:01.280Z,-1.37
2019-01-20T17:21:33.411Z,-1.27
2019-01-20T17:24:04.812Z,-1.49
2019-01-20T17:26:35.843Z,-1.24
2019-01-20T17:29:07.018Z,-1.18
2019-01-20T17:31:38.126Z,-1.13
2019-01-20T17:34:09.321Z,-1.27
2019-01-20T17:36:40.420Z,-1.44
2019-01-20T17:39:12.008Z,-1.42
2019-01-20T17:41:43.459Z,-1.22
2019-01-20T17:44:14.604Z,-1.24
2019-01-20T17:46:45.808Z,-1.39
2019-01-20T17:49:16.936Z,-1.42
2019-01-20T17:51:48.055Z,-1.31
2019-01-20T17:54:19.210Z,-1.47
2019-01-20T17:56:50.381Z,-1.42
2019-01-20T17:59:21.607Z,-1.33
2019-01-20T18:01:52.769Z,-1.32
2019-01-20T18:04:23.954Z,-1.28
2019-01-20T18:06:55.059Z,-1.43
2019-01-20T18:09:27.767Z,-1.52
2019-01-20T18:11:58.924Z,-1.44
2019-01-20T18:14:30.053Z,-1.52
2019-01-20T18:17:01.251Z,-1.54
2019-01-20T18:19:34.898Z,-1.72
2019-01-20T18:22:06.081Z,-1.70
2019-01-20T18:24:37.200Z,-1.63
2019-01-20T18:27:08.302Z,-1.56
2019-01-20T18:29:39.371Z,-1.71
2019-01-20T18:32:10.619Z,-1.55
2019-01-20T18:34:41.805Z,-1.55
2019-01-20T18:37:12.904Z,-1.75
2019-01-20T18:39:43.935Z,-1.74
2019-01-20T18:42:14.974Z,-1.92
2019-01-20T18:44:45.995Z,-1.84
2019-01-20T18:47:17.150Z,-1.75
2019-01-20T18:49:48.306Z,-1.82
2019-01-20T18:52:19.350Z,-1.63
2019-01-20T18:54:50.454Z,-1.57
2019-01-20T18:57:21.627Z,-1.75
2019-01-20T18:59:52.805Z,-1.75
2019-01-20T19:02:23.979Z,-1.81
2019-01-20T19:04:55.073Z,-1.67
2019-01-20T19:07:26.188Z,-1.68
2019-01-20T19:09:57.284Z,-1.66
2019-01-20T19:12:28.803Z,-1.79
2019-01-20T19:15:00.000Z,-1.84
2019-01-20T19:17:31.277Z,-1.89
2019-01-20T19:20:02.477Z,-1.80
2019-01-20T19:22:33.579Z,-2.12
2019-01-20T19:25:05.367Z,-2.02
2019-01-20T19:27:36.561Z,-2.15
2019-01-20T19:30:11.425Z,-2.22
2019-01-20T19:32:43.675Z,-2.52
2019-01-20T19:35:16.107Z,-2.25
2019-01-20T19:37:47.287Z,-2.19
2019-01-20T19:40:18.527Z,-2.18
2019-01-20T19:42:49.680Z,-2.15
2019-01-20T19:45:21.114Z,-2.21
2019-01-20T19:47:53.135Z,-2.28
2019-01-20T19:50:24.603Z,-2.20
2019-01-20T19:52:55.949Z,-2.10
2019-01-20T19:55:29.576Z,-1.95
2019-01-20T19:58:00.909Z,-1.89
2019-01-20T20:00:32.902Z,-1.93
2019-01-20T20:03:04.160Z,-1.91
2019-01-20T20:05:35.349Z,-1.86
2019-01-20T20:08:06.688Z,-1.91
2019-01-20T20:10:37.857Z,-2.09
2019-01-20T20:13:09.025Z,-2.06
2019-01-20T20:15:40.190Z,-2.09
2019-01-20T20:18:11.462Z,-1.90
2019-01-20T20:20:42.545Z,-1.80
2019-01-20T20:23:13.564Z,-1.72
2019-01-20T20:25:44.701Z,-1.94
2019-01-20T20:28:15.855Z,-1.85
2019-01-20T20:30:47.004Z,-1.82
2019-01-20T20:33:18.118Z,-1.81
2019-01-20T20:35:49.380Z,-1.78
2019-01-20T20:38:20.552Z,-2.00
2019-01-20T20:40:51.661Z,-2.09
2019-01-20T20:43:22.726Z,-1.88
2019-01-20T20:45:53.852Z,-2.05
2019-01-20T20:48:25.258Z,-1.89
2019-01-20T20:50:56.274Z,-1.71
2019-01-20T20:53:27.456Z,-1.94
2019-01-20T20:55:58.614Z,-1.86
2019-01-20T20:58:29.916Z,-1.74
2019-01-20T21:01:01.102Z,-1.66
2019-01-20T21:03:35.109Z,-1.76
2019-01-20T21:06:06.256Z,-1.85
2019-01-20T21:08:37.374Z,-1.93
2019-01-20T21:11:08.544Z,-1.74
2019-01-20T21:13:39.717Z,-2.00
2019-01-20T21:16:10.871Z,-2.08
2019-01-20T21:18:42.017Z,-2.18
2019-01-20T21:21:13.177Z,-2.40
2019-01-20T21:23:44.322Z,-2.27
2019-01-20T21:26:15.418Z,-2.20
2019-01-20T21:28:46.551Z,-2.04
2019-01-20T21:31:17.714Z,-2.15
2019-01-20T21:33:48.980Z,-1.90
2019-01-20T21:36:20.069Z,-1.74
2019-01-20T21:38:51.155Z,-1.81
2019-01-20T21:41:22.311Z,-1.98
2019-01-20T21:43:53.615Z,-1.80
2019-01-20T21:46:24.709Z,-1.84
2019-01-20T21:48:55.817Z,-1.92
2019-01-20T21:51:26.916Z,-1.79
2019-01-20T21:53:58.127Z,-1.79
2019-01-20T21:56:29.258Z,-1.99
2019-01-20T21:59:00.528Z,-1.87
2019-01-20T22:01:31.714Z,-1.92
2019-01-20T22:04:02.883Z,-1.78
2019-01-20T22:06:33.891Z,-1.77
2019-01-20T22:09:07.385Z,-1.99
2019-01-20T22:11:39.255Z,-1.79
2019-01-20T22:14:10.474Z,-1.78
2019-01-20T22:16:41.622Z,-1.94
2019-01-20T22:19:12.786Z,-2.00
2019-01-20T22:21:43.954Z,-2.23
2019-01-20T22:24:15.056Z,-2.28
2019-01-20T22:26:46.134Z,-2.13
2019-01-20T22:29:17.168Z,-2.38
2019-01-20T22:31:48.236Z,-2.40
2019-01-20T22:34:19.236Z,-2.37
2019-01-20T22:36:50.244Z,-2.35
2019-01-20T22:39:21.359Z,-2.23
2019-01-20T22:41:52.612Z,-2.15
2019-01-20T22:44:23.703Z,-2.05
2019-01-20T22:47:00.028Z,-2.06
2019-01-20T22:49:27.730Z,-2.20
2019-01-20T22:51:58.812Z,-2.07
2019-01-20T22:54:29.984Z,-2.05
2019-01-20T22:57:01.049Z,-2.09
2019-01-20T22:59:32.047Z,-2.12
2019-01-20T23:02:03.705Z,-1.94
2019-01-20T23:04:34.706Z,-1.79
2019-01-20T23:07:06.117Z,-2.20
2019-01-20T23:09:37.208Z,-2.17
2019-01-20T23:12:08.240Z,-2.15
2019-01-20T23:14:39.411Z,-2.04
2019-01-20T23:17:10.613Z,-2.07
2019-01-20T23:19:41.861Z,-1.84
2019-01-20T23:22:12.927Z,-1.96
2019-01-20T23:24:44.083Z,-1.91
2019-01-20T23:27:15.089Z,-2.01
2019-01-20T23:29:46.370Z,-2.08
2019-01-20T23:32:17.500Z,-2.11
2019-01-20T23:34:48.841Z,-2.05
2019-01-20T23:37:20.161Z,-1.74
2019-01-20T23:39:51.447Z,-2.06
2019-01-20T23:42:22.589Z,-2.28
2019-01-20T23:44:53.761Z,-2.11
2019-01-20T23:47:24.912Z,-2.20
2019-01-20T23:49:57.637Z,-2.34
2019-01-20T23:52:29.690Z,-2.43
2019-01-20T23:55:00.779Z,-2.10
2019-01-20T23:57:31.968Z,-2.08
